createdAt,value
2023-05-02T00:01:20.507Z,9.00
2023-05-02T00:03:47.319Z,9.00
2023-05-02T00:06:14.277Z,8.90
2023-05-02T00:08:41.022Z,8.70
2023-05-02T00:11:07.708Z,8.80
2023-05-02T00:13:34.408Z,8.90
2023-05-02T00:16:01.548Z,8.80
2023-05-02T00:18:28.192Z,8.60
2023-05-02T00:20:56.554Z,8.50
2023-05-02T00:23:23.911Z,8.50
2023-05-02T00:25:50.574Z,8.40
2023-05-02T00:28:17.619Z,8.30
2023-05-02T00:30:45.482Z,8.30
2023-05-02T00:33:14.313Z,8.40
2023-05-02T00:35:41.257Z,8.50
2023-05-02T00:38:07.916Z,8.60
2023-05-02T00:40:45.612Z,8.70
2023-05-02T00:43:12.449Z,8.60
2023-05-02T00:45:58.241Z,8.70
2023-05-02T00:48:28.208Z,8.60
2023-05-02T00:50:57.179Z,8.70
2023-05-02T00:53:23.839Z,8.70
2023-05-02T00:55:51.016Z,8.80
2023-05-02T00:58:19.110Z,8.80
2023-05-02T01:00:58.568Z,8.60
2023-05-02T01:03:55.301Z,8.40
2023-05-02T01:06:43.210Z,8.30
2023-05-02T01:09:35.968Z,8.50
2023-05-02T01:12:16.135Z,8.30
2023-05-02T01:14:46.836Z,8.30
2023-05-02T01:17:15.406Z,8.40
2023-05-02T01:19:45.716Z,8.30
2023-05-02T01:22:14.558Z,8.30
2023-05-02T01:24:50.143Z,8.40
2023-05-02T01:28:01.269Z,8.40
2023-05-02T01:30:30.835Z,8.40
2023-05-02T01:32:59.194Z,8.70
2023-05-02T01:35:28.182Z,8.40
2023-05-02T01:37:57.402Z,8.30
2023-05-02T01:40:26.365Z,8.40
2023-05-02T01:42:54.304Z,8.30
2023-05-02T01:45:22.702Z,8.30
2023-05-02T01:47:51.263Z,8.20
2023-05-02T01:50:23.202Z,8.40
2023-05-02T01:52:53.363Z,8.50
2023-05-02T01:55:20.760Z,8.60
2023-05-02T01:57:50.688Z,8.70
2023-05-02T02:00:19.243Z,8.60
2023-05-02T02:02:47.593Z,8.40
2023-05-02T02:05:15.980Z,8.40
2023-05-02T02:07:43.947Z,8.40
2023-05-02T02:10:11.151Z,8.50
2023-05-02T02:12:52.314Z,8.40
2023-05-02T02:15:28.602Z,8.20
2023-05-02T02:18:05.804Z,8.30
2023-05-02T02:20:32.881Z,8.40
2023-05-02T02:23:03.357Z,8.30
2023-05-02T02:25:30.590Z,8.30
2023-05-02T02:27:57.966Z,8.40
2023-05-02T02:30:24.651Z,8.40
2023-05-02T02:32:51.514Z,8.30
2023-05-02T02:35:18.556Z,8.30
2023-05-02T02:37:50.672Z,8.20
2023-05-02T02:40:31.500Z,8.30
2023-05-02T02:43:36.193Z,8.30
2023-05-02T02:46:11.850Z,8.10
2023-05-02T02:48:58.447Z,8.10
2023-05-02T02:52:10.380Z,8.10
2023-05-02T02:54:46.468Z,8.20
2023-05-02T02:57:37.561Z,8.20
2023-05-02T03:00:11.723Z,8.30
2023-05-02T03:02:41.763Z,8.20
2023-05-02T03:05:10.519Z,8.20
2023-05-02T03:07:37.192Z,8.30
2023-05-02T03:10:05.186Z,8.30
2023-05-02T03:12:34.238Z,8.20
2023-05-02T03:15:25.382Z,8.20
2023-05-02T03:17:52.325Z,8.40
2023-05-02T03:20:19.569Z,8.40
2023-05-02T03:22:46.374Z,8.40
2023-05-02T03:25:13.151Z,8.50
2023-05-02T03:27:44.204Z,8.60
2023-05-02T03:30:12.091Z,8.50
2023-05-02T03:32:38.807Z,8.60
2023-05-02T03:35:06.183Z,8.50
2023-05-02T03:37:38.097Z,8.60
2023-05-02T03:40:05.545Z,8.70
2023-05-02T03:42:39.875Z,8.70
2023-05-02T03:45:11.198Z,8.80
2023-05-02T03:47:38.028Z,8.50
2023-05-02T03:50:05.122Z,8.50
2023-05-02T03:52:33.962Z,8.40
2023-05-02T03:55:01.979Z,8.60
2023-05-02T03:57:32.813Z,8.60
2023-05-02T04:00:00.711Z,8.70
2023-05-02T04:02:38.504Z,8.80
2023-05-02T04:05:08.622Z,8.70
2023-05-02T04:07:36.342Z,8.50
2023-05-02T04:10:06.910Z,8.60
2023-05-02T04:12:38.903Z,8.70
2023-05-02T04:15:06.404Z,8.80
2023-05-02T04:17:33.098Z,8.90
2023-05-02T04:20:02.373Z,8.90
2023-05-02T04:22:33.040Z,9.00
2023-05-02T04:25:03.368Z,9.00
2023-05-02T04:27:30.945Z,9.10
2023-05-02T04:29:58.566Z,9.10
2023-05-02T04:32:25.567Z,9.00
2023-05-02T04:34:53.239Z,9.00
2023-05-02T04:37:21.299Z,9.10
2023-05-02T04:39:49.702Z,9.10
2023-05-02T04:42:19.983Z,9.10
2023-05-02T04:45:06.822Z,9.00
2023-05-02T04:47:33.605Z,8.90
2023-05-02T04:50:00.624Z,8.90
2023-05-02T04:52:27.582Z,8.90
2023-05-02T04:54:54.613Z,8.90
2023-05-02T04:57:22.651Z,8.90
2023-05-02T05:00:01.353Z,9.10
2023-05-02T05:02:34.209Z,9.00
2023-05-02T05:05:02.472Z,8.80
2023-05-02T05:07:29.151Z,8.80
2023-05-02T05:09:55.942Z,8.90
2023-05-02T05:12:25.542Z,8.90
2023-05-02T05:14:53.694Z,8.90
2023-05-02T05:17:22.925Z,8.90
2023-05-02T05:19:49.657Z,8.90
2023-05-02T05:22:16.395Z,8.80
2023-05-02T05:24:43.149Z,8.60
2023-05-02T05:27:11.229Z,8.80
2023-05-02T05:29:37.908Z,8.90
2023-05-02T05:32:06.132Z,9.00
2023-05-02T05:34:33.764Z,9.10
2023-05-02T05:37:01.478Z,9.20
2023-05-02T05:39:28.376Z,9.10
2023-05-02T05:41:57.479Z,9.10
2023-05-02T05:44:25.409Z,9.10
2023-05-02T05:46:52.133Z,9.30
2023-05-02T05:49:22.210Z,9.30
2023-05-02T05:51:49.219Z,9.50
2023-05-02T05:54:18.762Z,9.40
2023-05-02T05:56:46.060Z,9.40
2023-05-02T05:59:16.468Z,9.40
2023-05-02T06:01:43.121Z,9.60
2023-05-02T06:04:10.902Z,9.90
2023-05-02T06:06:41.269Z,10.00
2023-05-02T06:09:08.086Z,9.90
2023-05-02T06:11:37.990Z,10.10
2023-05-02T06:14:04.758Z,9.90
2023-05-02T06:16:31.535Z,10.00
2023-05-02T06:18:58.258Z,10.00
2023-05-02T06:21:25.185Z,10.00
2023-05-02T06:23:52.690Z,10.10
2023-05-02T06:26:19.376Z,10.30
2023-05-02T06:28:46.247Z,10.40
2023-05-02T06:31:12.918Z,10.30
2023-05-02T06:33:39.647Z,10.30
2023-05-02T06:36:06.443Z,10.60
2023-05-02T06:38:33.176Z,10.50
2023-05-02T06:40:59.955Z,10.50
2023-05-02T06:43:26.771Z,10.60
2023-05-02T06:45:57.705Z,10.50
2023-05-02T06:48:25.000Z,10.50
2023-05-02T06:51:00.511Z,10.60
2023-05-02T06:53:27.166Z,10.50
2023-05-02T06:55:53.846Z,10.60
2023-05-02T06:58:20.517Z,10.70
2023-05-02T07:00:48.701Z,10.80
2023-05-02T07:03:15.547Z,10.90
2023-05-02T07:05:42.335Z,11.00
2023-05-02T07:08:10.231Z,11.10
2023-05-02T07:10:37.254Z,11.20
2023-05-02T07:13:03.922Z,11.30
2023-05-02T07:15:30.651Z,11.60
2023-05-02T07:17:57.336Z,11.70
2023-05-02T07:20:24.149Z,11.60
2023-05-02T07:22:51.111Z,11.80
2023-05-02T07:25:17.838Z,12.00
2023-05-02T07:27:44.529Z,11.90
2023-05-02T07:30:11.721Z,12.20
2023-05-02T07:32:38.406Z,12.30
2023-05-02T07:35:05.526Z,12.50
2023-05-02T07:37:34.495Z,12.60
2023-05-02T07:40:02.298Z,12.80
2023-05-02T07:42:30.655Z,12.80
2023-05-02T07:44:57.821Z,13.00
2023-05-02T07:47:24.533Z,13.00
2023-05-02T07:49:52.273Z,13.10
2023-05-02T07:52:20.233Z,13.00
2023-05-02T07:54:49.621Z,13.10
2023-05-02T07:57:16.637Z,13.10
2023-05-02T07:59:43.358Z,13.30
2023-05-02T08:02:11.231Z,13.30
2023-05-02T08:04:38.033Z,13.60
2023-05-02T08:07:04.755Z,13.70
2023-05-02T08:09:31.408Z,13.70
2023-05-02T08:11:58.182Z,13.60
2023-05-02T08:14:24.823Z,13.70
2023-05-02T08:16:51.993Z,13.80
2023-05-02T08:19:18.745Z,13.80
2023-05-02T08:21:45.467Z,13.90
2023-05-02T08:24:12.117Z,14.10
2023-05-02T08:26:38.789Z,14.30
2023-05-02T08:29:05.578Z,14.60
2023-05-02T08:31:32.366Z,14.90
2023-05-02T08:33:59.078Z,15.30
2023-05-02T08:36:28.159Z,15.40
2023-05-02T08:38:54.773Z,15.40
2023-05-02T08:41:22.657Z,15.60
2023-05-02T08:43:49.691Z,15.90
2023-05-02T08:46:17.797Z,15.90
2023-05-02T08:48:48.037Z,15.90
2023-05-02T08:51:16.960Z,15.80
2023-05-02T08:53:44.502Z,15.70
2023-05-02T08:56:12.837Z,15.70
2023-05-02T08:58:40.851Z,15.80
2023-05-02T09:01:16.327Z,15.90
2023-05-02T09:03:47.933Z,16.00
2023-05-02T09:06:22.175Z,16.20
2023-05-02T09:08:52.316Z,16.20
2023-05-02T09:11:19.743Z,16.20
2023-05-02T09:13:51.661Z,16.20
2023-05-02T09:16:23.944Z,16.10
2023-05-02T09:18:52.291Z,16.20
2023-05-02T09:21:21.357Z,16.40
2023-05-02T09:23:49.208Z,16.50
2023-05-02T09:26:15.974Z,16.40
2023-05-02T09:28:45.160Z,16.60
2023-05-02T09:31:16.825Z,16.70
2023-05-02T09:33:46.320Z,16.80
2023-05-02T09:36:18.269Z,16.20
2023-05-02T09:38:47.075Z,16.10
2023-05-02T09:41:14.076Z,16.20
2023-05-02T09:43:41.469Z,16.20
2023-05-02T09:46:10.608Z,16.10
2023-05-02T09:48:53.703Z,15.90
2023-05-02T09:51:21.236Z,15.90
2023-05-02T09:53:48.589Z,16.10
2023-05-02T09:56:15.899Z,16.20
2023-05-02T09:58:43.225Z,16.20
2023-05-02T10:01:16.723Z,16.30
2023-05-02T10:03:47.231Z,16.40
2023-05-02T10:06:16.954Z,16.60
2023-05-02T10:08:45.499Z,16.70
2023-05-02T10:11:13.114Z,17.00
2023-05-02T10:13:42.767Z,17.20
2023-05-02T10:16:13.126Z,17.20
2023-05-02T10:18:58.561Z,17.40
2023-05-02T10:21:27.796Z,17.40
2023-05-02T10:23:55.033Z,17.60
2023-05-02T10:26:23.505Z,17.80
2023-05-02T10:28:51.161Z,17.80
2023-05-02T10:31:18.719Z,17.30
2023-05-02T10:33:50.619Z,17.40
2023-05-02T10:36:23.596Z,17.50
2023-05-02T10:38:51.054Z,17.80
2023-05-02T10:41:22.715Z,18.10
2023-05-02T10:43:49.968Z,18.00
2023-05-02T10:46:43.408Z,17.70
2023-05-02T10:49:12.379Z,17.50
2023-05-02T10:51:41.313Z,17.80
2023-05-02T10:54:17.256Z,17.50
2023-05-02T10:57:08.793Z,17.30
2023-05-02T10:59:38.045Z,16.80
2023-05-02T11:02:23.799Z,16.40
2023-05-02T11:05:05.863Z,16.20
2023-05-02T11:07:34.489Z,15.90
2023-05-02T11:10:22.158Z,15.60
2023-05-02T11:12:57.067Z,15.40
2023-05-02T11:15:29.492Z,15.10
2023-05-02T11:18:07.800Z,14.60
2023-05-02T11:20:36.521Z,14.40
2023-05-02T11:23:15.926Z,14.20
2023-05-02T11:26:00.961Z,14.10
2023-05-02T11:28:36.795Z,14.20
2023-05-02T11:31:07.905Z,14.40
2023-05-02T11:33:34.559Z,14.60
2023-05-02T11:36:01.417Z,14.90
2023-05-02T11:38:38.126Z,15.20
2023-05-02T11:41:05.097Z,15.60
2023-05-02T11:43:32.554Z,15.90
2023-05-02T11:46:01.520Z,16.30
2023-05-02T11:48:29.029Z,16.80
2023-05-02T11:50:58.131Z,17.20
2023-05-02T11:53:31.430Z,17.90
2023-05-02T11:56:02.922Z,18.10
2023-05-02T11:58:32.868Z,18.30
2023-05-02T12:01:13.883Z,18.40
2023-05-02T12:03:41.423Z,18.50
2023-05-02T12:06:20.953Z,18.60
2023-05-02T12:08:48.973Z,18.80
2023-05-02T12:11:16.916Z,19.00
2023-05-02T12:13:46.254Z,19.20
2023-05-02T12:16:13.207Z,19.70
2023-05-02T12:18:40.135Z,19.60
2023-05-02T12:21:07.730Z,19.40
2023-05-02T12:23:35.946Z,19.40
2023-05-02T12:26:17.410Z,19.20
2023-05-02T12:28:52.125Z,18.70
2023-05-02T12:31:19.605Z,18.60
2023-05-02T12:33:50.671Z,18.80
2023-05-02T12:36:19.114Z,18.90
2023-05-02T12:38:52.911Z,19.30
2023-05-02T12:41:33.039Z,19.20
2023-05-02T12:44:01.214Z,19.30
2023-05-02T12:46:28.763Z,19.80
2023-05-02T12:49:22.458Z,20.10
2023-05-02T12:51:55.886Z,20.00
2023-05-02T12:54:22.752Z,20.00
2023-05-02T12:56:52.086Z,19.70
2023-05-02T12:59:30.690Z,18.90
2023-05-02T13:02:02.449Z,18.70
2023-05-02T13:04:36.725Z,18.50
2023-05-02T13:07:03.377Z,18.40
2023-05-02T13:09:30.029Z,18.40
2023-05-02T13:11:58.873Z,18.20
2023-05-02T13:14:25.920Z,17.90
2023-05-02T13:16:53.514Z,17.70
2023-05-02T13:19:20.748Z,17.50
2023-05-02T13:21:48.056Z,17.50
2023-05-02T13:24:14.994Z,17.70
2023-05-02T13:26:41.793Z,17.80
2023-05-02T13:29:11.551Z,17.90
2023-05-02T13:31:38.944Z,18.50
2023-05-02T13:34:06.016Z,19.00
2023-05-02T13:36:32.759Z,18.80
2023-05-02T13:38:59.434Z,18.70
2023-05-02T13:41:26.127Z,18.70
2023-05-02T13:43:53.851Z,18.60
2023-05-02T13:46:20.548Z,18.20
2023-05-02T13:48:47.298Z,17.70
2023-05-02T13:51:13.966Z,17.60
2023-05-02T13:53:40.679Z,17.70
2023-05-02T13:56:07.538Z,17.70
2023-05-02T13:58:34.399Z,17.80
2023-05-02T14:01:01.422Z,17.80
2023-05-02T14:03:28.271Z,17.90
2023-05-02T14:05:54.963Z,18.20
2023-05-02T14:08:21.595Z,18.40
2023-05-02T14:10:48.226Z,18.50
2023-05-02T14:13:14.877Z,18.80
2023-05-02T14:15:41.527Z,18.70
2023-05-02T14:18:08.251Z,18.90
2023-05-02T14:20:34.989Z,19.20
2023-05-02T14:23:01.755Z,19.30
2023-05-02T14:25:28.460Z,19.20
2023-05-02T14:27:55.233Z,18.90
2023-05-02T14:30:21.968Z,18.90
2023-05-02T14:32:48.654Z,18.80
2023-05-02T14:35:15.706Z,19.00
2023-05-02T14:37:44.979Z,18.90
2023-05-02T14:40:12.320Z,19.10
2023-05-02T14:42:38.967Z,19.30
2023-05-02T14:45:06.605Z,19.30
2023-05-02T14:47:33.403Z,19.50
2023-05-02T14:50:01.142Z,19.60
2023-05-02T14:52:27.859Z,19.40
2023-05-02T14:54:54.645Z,19.10
2023-05-02T14:57:21.436Z,18.90
2023-05-02T14:59:48.226Z,19.00
2023-05-02T15:02:14.927Z,19.20
2023-05-02T15:04:42.237Z,18.90
2023-05-02T15:07:09.727Z,18.80
2023-05-02T15:09:36.483Z,18.70
2023-05-02T15:12:03.270Z,18.60
2023-05-02T15:14:33.489Z,18.60
2023-05-02T15:17:02.449Z,18.70
2023-05-02T15:19:32.545Z,18.50
2023-05-02T15:22:02.410Z,18.60
2023-05-02T15:24:29.262Z,18.60
2023-05-02T15:26:56.670Z,18.50
2023-05-02T15:29:23.774Z,18.50
2023-05-02T15:31:54.554Z,18.70
2023-05-02T15:34:26.748Z,18.70
2023-05-02T15:36:57.936Z,18.50
2023-05-02T15:39:27.848Z,18.40
2023-05-02T15:41:54.782Z,18.40
2023-05-02T15:44:22.457Z,18.50
2023-05-02T15:46:49.357Z,18.50
2023-05-02T15:49:16.275Z,18.70
2023-05-02T15:51:43.688Z,18.60
2023-05-02T15:54:11.414Z,18.40
2023-05-02T15:56:41.839Z,18.50
2023-05-02T15:59:11.757Z,18.70
2023-05-02T16:01:39.086Z,18.80
2023-05-02T16:04:06.976Z,19.00
2023-05-02T16:06:34.262Z,19.20
2023-05-02T16:09:03.375Z,19.20
2023-05-02T16:11:30.906Z,19.30
2023-05-02T16:14:01.786Z,19.40
2023-05-02T16:16:29.107Z,19.50
2023-05-02T16:18:56.890Z,19.50
2023-05-02T16:21:23.988Z,19.20
2023-05-02T16:23:51.255Z,18.80
2023-05-02T16:26:18.008Z,18.60
2023-05-02T16:28:45.050Z,18.40
2023-05-02T16:31:14.344Z,18.50
2023-05-02T16:33:43.137Z,18.60
2023-05-02T16:36:10.861Z,18.60
2023-05-02T16:38:37.693Z,18.40
2023-05-02T16:41:07.115Z,18.10
2023-05-02T16:43:34.250Z,18.00
2023-05-02T16:46:06.116Z,17.80
2023-05-02T16:48:35.227Z,17.60
2023-05-02T16:51:04.235Z,17.60
2023-05-02T16:53:31.909Z,17.70
2023-05-02T16:56:00.067Z,17.70
2023-05-02T16:58:33.191Z,17.70
2023-05-02T17:01:04.094Z,17.90
2023-05-02T17:03:31.970Z,17.90
2023-05-02T17:06:03.406Z,17.90
2023-05-02T17:08:30.921Z,17.70
2023-05-02T17:11:01.726Z,17.40
2023-05-02T17:13:29.368Z,17.40
2023-05-02T17:15:56.177Z,17.20
2023-05-02T17:18:23.782Z,17.00
2023-05-02T17:20:54.887Z,17.00
2023-05-02T17:23:22.817Z,17.00
2023-05-02T17:25:50.990Z,16.90
2023-05-02T17:28:20.906Z,16.60
2023-05-02T17:30:48.661Z,16.70
2023-05-02T17:33:16.301Z,16.70
2023-05-02T17:35:48.418Z,16.50
2023-05-02T17:38:16.387Z,16.30
2023-05-02T17:40:44.065Z,16.10
2023-05-02T17:43:14.766Z,16.30
2023-05-02T17:45:42.036Z,16.40
2023-05-02T17:48:08.757Z,16.40
2023-05-02T17:50:39.707Z,16.40
2023-05-02T17:53:07.146Z,16.30
2023-05-02T17:55:37.736Z,16.30
2023-05-02T17:58:04.954Z,16.40
2023-05-02T18:00:31.873Z,16.30
2023-05-02T18:02:58.874Z,16.20
2023-05-02T18:05:26.746Z,16.10
2023-05-02T18:07:53.619Z,15.90
2023-05-02T18:10:20.438Z,15.90
2023-05-02T18:12:47.059Z,15.70
2023-05-02T18:15:13.962Z,15.60
2023-05-02T18:17:40.753Z,15.50
2023-05-02T18:20:09.822Z,15.60
2023-05-02T18:22:36.803Z,15.40
2023-05-02T18:25:04.418Z,15.20
2023-05-02T18:27:31.913Z,15.00
2023-05-02T18:29:58.629Z,15.10
2023-05-02T18:32:25.981Z,15.20
2023-05-02T18:34:52.814Z,15.10
2023-05-02T18:37:19.465Z,14.90
2023-05-02T18:39:46.185Z,14.70
2023-05-02T18:42:13.779Z,14.60
2023-05-02T18:44:40.993Z,14.70
2023-05-02T18:47:07.885Z,14.70
2023-05-02T18:49:34.529Z,14.80
2023-05-02T18:52:01.154Z,15.00
2023-05-02T18:54:28.702Z,15.00
2023-05-02T18:56:55.592Z,15.10
2023-05-02T18:59:22.239Z,14.90
2023-05-02T19:01:49.265Z,15.00
2023-05-02T19:04:16.458Z,14.80
2023-05-02T19:06:43.243Z,14.50
2023-05-02T19:09:09.989Z,14.40
2023-05-02T19:11:36.782Z,14.40
2023-05-02T19:14:03.724Z,14.20
2023-05-02T19:16:31.399Z,14.10
2023-05-02T19:18:58.259Z,14.00
2023-05-02T19:21:27.635Z,13.90
2023-05-02T19:23:56.371Z,14.00
2023-05-02T19:26:23.414Z,14.00
2023-05-02T19:28:50.147Z,13.70
2023-05-02T19:31:19.456Z,13.60
2023-05-02T19:33:51.722Z,13.30
2023-05-02T19:36:19.761Z,13.30
2023-05-02T19:38:58.097Z,13.30
2023-05-02T19:41:25.105Z,13.20
2023-05-02T19:43:52.427Z,13.30
2023-05-02T19:46:19.454Z,13.30
2023-05-02T19:48:46.194Z,13.30
2023-05-02T19:51:12.983Z,13.30
2023-05-02T19:53:39.632Z,13.30
2023-05-02T19:56:07.233Z,13.30
2023-05-02T19:58:34.369Z,13.10
2023-05-02T20:01:01.080Z,12.90
2023-05-02T20:03:27.995Z,12.80
2023-05-02T20:05:57.238Z,12.70
2023-05-02T20:08:27.383Z,12.60
2023-05-02T20:10:54.976Z,12.60
2023-05-02T20:13:21.788Z,12.50
2023-05-02T20:15:52.607Z,12.50
2023-05-02T20:18:20.102Z,12.50
2023-05-02T20:20:46.973Z,12.40
2023-05-02T20:23:14.264Z,12.30
2023-05-02T20:25:42.650Z,12.30
2023-05-02T20:28:09.880Z,12.50
2023-05-02T20:30:36.628Z,12.50
2023-05-02T20:33:14.112Z,12.30
2023-05-02T20:35:42.097Z,12.00
2023-05-02T20:38:08.730Z,11.80
2023-05-02T20:40:39.342Z,11.80
2023-05-02T20:43:06.487Z,11.80
2023-05-02T20:45:33.335Z,11.70
2023-05-02T20:48:00.076Z,11.60
2023-05-02T20:50:27.066Z,11.70
2023-05-02T20:52:54.363Z,11.80
2023-05-02T20:55:23.082Z,11.90
2023-05-02T20:57:52.722Z,12.00
2023-05-02T21:00:22.606Z,12.00
2023-05-02T21:02:49.733Z,12.00
2023-05-02T21:05:16.701Z,11.90
2023-05-02T21:07:44.602Z,11.90
2023-05-02T21:10:11.349Z,11.80
2023-05-02T21:12:38.598Z,11.70
2023-05-02T21:15:07.172Z,11.60
2023-05-02T21:17:34.015Z,11.50
2023-05-02T21:20:01.002Z,11.50
2023-05-02T21:22:28.133Z,11.40
2023-05-02T21:24:54.776Z,11.50
2023-05-02T21:27:22.782Z,11.40
2023-05-02T21:29:49.658Z,11.40
2023-05-02T21:32:16.286Z,11.50
2023-05-02T21:34:42.921Z,11.60
2023-05-02T21:37:09.611Z,11.40
2023-05-02T21:39:37.332Z,11.30
2023-05-02T21:42:04.961Z,11.30
2023-05-02T21:44:31.766Z,11.40
2023-05-02T21:46:58.470Z,11.50
2023-05-02T21:49:25.132Z,11.60
2023-05-02T21:51:51.755Z,11.60
2023-05-02T21:54:18.459Z,11.50
2023-05-02T21:56:45.167Z,11.60
2023-05-02T21:59:11.835Z,11.50
2023-05-02T22:01:38.491Z,11.50
2023-05-02T22:04:05.261Z,11.40
2023-05-02T22:06:32.741Z,11.50
2023-05-02T22:08:59.465Z,11.30
2023-05-02T22:11:28.421Z,11.30
2023-05-02T22:13:55.167Z,11.30
2023-05-02T22:16:21.952Z,11.30
2023-05-02T22:18:49.555Z,11.20
2023-05-02T22:21:16.317Z,11.30
2023-05-02T22:23:43.863Z,11.30
2023-05-02T22:26:10.666Z,11.20
2023-05-02T22:28:37.330Z,11.00
2023-05-02T22:31:04.051Z,11.00
2023-05-02T22:33:30.703Z,11.00
2023-05-02T22:35:57.432Z,11.00
2023-05-02T22:38:24.083Z,11.00
2023-05-02T22:40:50.744Z,10.90
2023-05-02T22:43:17.586Z,11.10
2023-05-02T22:45:44.593Z,10.90
2023-05-02T22:48:11.985Z,11.00
2023-05-02T22:50:38.703Z,10.80
2023-05-02T22:53:05.480Z,10.60
2023-05-02T22:55:32.169Z,10.40
2023-05-02T22:57:58.821Z,10.20
2023-05-02T23:00:25.455Z,10.30
2023-05-02T23:02:52.214Z,10.30
2023-05-02T23:05:19.440Z,10.30
2023-05-02T23:07:46.112Z,10.20
2023-05-02T23:10:12.790Z,10.30
2023-05-02T23:12:39.521Z,10.30
2023-05-02T23:15:07.427Z,10.30
2023-05-02T23:17:41.048Z,10.40
2023-05-02T23:20:12.093Z,10.50
2023-05-02T23:22:47.868Z,10.40
2023-05-02T23:25:15.231Z,10.40
2023-05-02T23:27:42.015Z,10.30
2023-05-02T23:30:09.188Z,10.40
2023-05-02T23:32:36.617Z,10.30
2023-05-02T23:35:05.331Z,10.20
2023-05-02T23:37:32.138Z,10.20
2023-05-02T23:40:00.393Z,10.30
2023-05-02T23:42:29.251Z,10.30
2023-05-02T23:44:57.622Z,10.30
2023-05-02T23:47:27.441Z,10.20
2023-05-02T23:49:54.277Z,10.10
2023-05-02T23:52:21.021Z,10.00
2023-05-02T23:54:47.732Z,9.90
2023-05-02T23:57:14.360Z,9.90
2023-05-02T23:59:41.030Z,9.90
